createdAt,value
2023-02-05T00:01:40.627Z,99012.00
2023-02-05T00:06:41.393Z,99007.00
2023-02-05T00:11:42.228Z,99009.00
2023-02-05T00:16:42.984Z,99030.00
2023-02-05T00:21:44.232Z,99033.00
2023-02-05T00:26:45.085Z,99022.00
2023-02-05T00:31:48.696Z,99007.00
2023-02-05T00:36:49.439Z,99006.00
2023-02-05T00:41:50.371Z,99011.00
2023-02-05T00:46:51.342Z,98993.00
2023-02-05T00:51:52.248Z,98985.00
2023-02-05T00:56:53.008Z,98973.00
2023-02-05T01:01:53.873Z,98977.00
2023-02-05T01:06:57.700Z,98967.00
2023-02-05T01:11:58.751Z,98966.00
2023-02-05T01:17:01.094Z,98973.00
2023-02-05T01:22:02.280Z,98955.00
2023-02-05T01:27:03.770Z,98956.00
2023-02-05T01:32:04.846Z,98950.00
2023-02-05T01:37:05.684Z,98932.00
2023-02-05T01:42:18.891Z,98927.00
2023-02-05T01:47:19.631Z,98918.00
2023-02-05T01:52:21.533Z,98917.00
2023-02-05T01:57:24.517Z,98917.00
2023-02-05T02:02:25.565Z,98914.00
2023-02-05T02:07:26.417Z,98920.00
2023-02-05T02:12:31.821Z,98924.00
2023-02-05T02:17:38.515Z,98915.00
2023-02-05T02:24:32.262Z,98896.00
2023-02-05T02:29:39.043Z,98896.00
2023-02-05T02:35:00.853Z,98894.00
2023-02-05T02:40:15.276Z,98893.00
2023-02-05T02:45:20.464Z,98883.00
2023-02-05T02:50:31.842Z,98866.00
2023-02-05T02:55:37.493Z,98861.00
2023-02-05T03:00:41.939Z,98865.00
2023-02-05T03:05:45.906Z,98858.00
2023-02-05T03:10:54.323Z,98863.00
2023-02-05T03:15:56.549Z,98870.00
2023-02-05T03:21:03.217Z,98863.00
2023-02-05T03:26:04.954Z,98847.00
2023-02-05T03:31:22.804Z,98849.00
2023-02-05T03:36:49.591Z,98846.00
2023-02-05T03:42:09.728Z,98837.00
2023-02-05T03:48:49.536Z,98856.00
2023-02-05T03:54:48.636Z,98862.00
2023-02-05T03:59:55.839Z,98859.00
2023-02-05T04:04:56.625Z,98852.00
2023-02-05T04:09:57.996Z,98835.00
2023-02-05T04:14:59.131Z,98848.00
2023-02-05T04:20:00.933Z,98847.00
2023-02-05T04:25:03.794Z,98843.00
2023-02-05T04:30:06.023Z,98842.00
2023-02-05T04:35:08.172Z,98821.00
2023-02-05T04:40:09.905Z,98797.00
2023-02-05T04:45:11.978Z,98804.00
2023-02-05T04:50:12.719Z,98814.00
2023-02-05T04:55:13.576Z,98823.00
2023-02-05T05:00:15.278Z,98824.00
2023-02-05T05:05:16.061Z,98823.00
2023-02-05T05:10:16.839Z,98827.00
2023-02-05T05:15:17.799Z,98821.00
2023-02-05T05:20:18.941Z,98825.00
2023-02-05T05:25:19.645Z,98838.00
2023-02-05T05:30:20.766Z,98834.00
2023-02-05T05:35:21.507Z,98830.00
2023-02-05T05:40:40.993Z,98832.00
2023-02-05T05:45:41.880Z,98834.00
2023-02-05T05:50:42.693Z,98841.00
2023-02-05T05:55:43.454Z,98848.00
2023-02-05T06:00:44.344Z,98838.00
2023-02-05T06:05:45.070Z,98840.00
2023-02-05T06:10:45.888Z,98842.00
2023-02-05T06:15:48.207Z,98831.00
2023-02-05T06:20:49.261Z,98812.00
2023-02-05T06:25:50.123Z,98804.00
2023-02-05T06:30:51.919Z,98792.00
2023-02-05T06:35:52.800Z,98787.00
2023-02-05T06:40:53.579Z,98761.00
2023-02-05T06:45:55.029Z,98786.00
2023-02-05T06:50:55.817Z,98791.00
2023-02-05T06:55:59.942Z,98811.00
2023-02-05T07:01:01.918Z,98814.00
2023-02-05T07:06:04.300Z,98813.00
2023-02-05T07:11:05.457Z,98826.00
2023-02-05T07:16:06.900Z,98815.00
2023-02-05T07:21:09.956Z,98815.00
2023-02-05T07:26:13.870Z,98812.00
2023-02-05T07:31:17.887Z,98807.00
2023-02-05T07:36:18.856Z,98815.00
2023-02-05T07:41:19.639Z,98813.00
2023-02-05T07:46:21.301Z,98803.00
2023-02-05T07:51:23.745Z,98801.00
2023-02-05T07:56:25.000Z,98804.00
2023-02-05T08:01:26.189Z,98791.00
2023-02-05T08:06:26.971Z,98794.00
2023-02-05T08:11:27.743Z,98796.00
2023-02-05T08:16:28.538Z,98802.00
2023-02-05T08:21:29.628Z,98792.00
2023-02-05T08:26:30.369Z,98781.00
2023-02-05T08:31:31.333Z,98770.00
2023-02-05T08:36:32.161Z,98775.00
2023-02-05T08:41:32.954Z,98773.00
2023-02-05T08:46:47.496Z,98764.00
2023-02-05T08:51:50.444Z,98765.00
2023-02-05T08:56:51.469Z,98776.00
2023-02-05T09:01:52.498Z,98773.00
2023-02-05T09:06:53.282Z,98768.00
2023-02-05T09:11:54.024Z,98767.00
2023-02-05T09:16:54.798Z,98752.00
2023-02-05T09:21:55.830Z,98753.00
2023-02-05T09:26:56.692Z,98757.00
2023-02-05T09:31:58.907Z,98750.00
2023-02-05T09:36:59.790Z,98752.00
2023-02-05T09:43:42.622Z,98749.00
2023-02-05T09:48:51.184Z,98739.00
2023-02-05T09:53:56.812Z,98735.00
2023-02-05T09:58:58.667Z,98733.00
2023-02-05T10:04:02.439Z,98736.00
2023-02-05T10:10:56.706Z,98734.00
2023-02-05T10:16:36.136Z,98732.00
2023-02-05T10:21:53.487Z,98722.00
2023-02-05T10:27:38.767Z,98717.00
2023-02-05T10:32:57.853Z,98709.00
2023-02-05T10:37:58.965Z,98690.00
2023-02-05T10:43:48.018Z,98683.00
2023-02-05T10:49:07.631Z,98685.00
2023-02-05T10:54:24.121Z,98671.00
2023-02-05T10:59:30.597Z,98678.00
2023-02-05T11:04:41.657Z,98672.00
2023-02-05T11:09:43.687Z,98663.00
2023-02-05T11:14:45.962Z,98666.00
2023-02-05T11:20:03.269Z,98669.00
2023-02-05T11:25:13.035Z,98657.00
2023-02-05T11:30:53.231Z,98666.00
2023-02-05T11:36:03.262Z,98655.00
2023-02-05T11:41:06.513Z,98653.00
2023-02-05T11:46:09.074Z,98653.00
2023-02-05T11:51:28.760Z,98651.00
2023-02-05T11:56:32.629Z,98651.00
2023-02-05T12:01:34.929Z,98640.00
2023-02-05T12:06:49.297Z,98624.00
2023-02-05T12:12:26.320Z,98627.00
2023-02-05T12:17:40.256Z,98617.00
2023-02-05T12:23:52.729Z,98619.00
2023-02-05T12:31:24.061Z,98607.00
2023-02-05T12:41:09.448Z,98601.00
2023-02-05T12:48:24.938Z,98604.00
2023-02-05T12:54:01.813Z,98630.00
2023-02-05T12:59:12.222Z,98620.00
2023-02-05T13:04:37.057Z,98624.00
2023-02-05T13:09:50.491Z,98632.00
2023-02-05T13:15:06.261Z,98627.00
2023-02-05T13:20:21.349Z,98632.00
2023-02-05T13:26:13.623Z,98631.00
2023-02-05T13:31:42.950Z,98632.00
2023-02-05T13:38:21.484Z,98637.00
2023-02-05T13:48:19.346Z,98633.00
2023-02-05T13:53:48.265Z,98624.00
2023-02-05T13:58:52.132Z,98625.00
2023-02-05T14:04:03.623Z,98625.00
2023-02-05T14:09:17.147Z,98635.00
2023-02-05T14:14:22.893Z,98633.00
2023-02-05T14:19:26.767Z,98639.00
2023-02-05T14:24:46.102Z,98648.00
2023-02-05T14:29:48.932Z,98654.00
2023-02-05T14:35:01.319Z,98655.00
2023-02-05T14:41:03.679Z,98662.00
2023-02-05T14:46:39.117Z,98670.00
2023-02-05T14:51:41.885Z,98674.00
2023-02-05T14:56:48.107Z,98684.00
2023-02-05T15:01:53.360Z,98695.00
2023-02-05T15:07:02.454Z,98685.00
2023-02-05T15:12:30.955Z,98689.00
2023-02-05T15:17:45.466Z,98690.00
2023-02-05T15:22:53.479Z,98691.00
2023-02-05T15:28:09.227Z,98691.00
2023-02-05T15:33:19.218Z,98684.00
2023-02-05T15:38:28.504Z,98692.00
2023-02-05T15:43:29.233Z,98701.00
2023-02-05T15:48:33.183Z,98700.00
2023-02-05T15:53:42.277Z,98704.00
2023-02-05T15:58:52.952Z,98705.00
2023-02-05T16:03:53.775Z,98709.00
2023-02-05T16:08:55.559Z,98709.00
2023-02-05T16:14:10.187Z,98727.00
2023-02-05T16:19:21.148Z,98742.00
2023-02-05T16:24:33.048Z,98744.00
2023-02-05T16:29:47.969Z,98760.00
2023-02-05T16:34:49.460Z,98770.00
2023-02-05T16:39:53.362Z,98768.00
2023-02-05T16:46:19.091Z,98800.00
2023-02-05T16:51:35.524Z,98793.00
2023-02-05T16:57:15.145Z,98812.00
2023-02-05T17:02:29.125Z,98827.00
2023-02-05T17:07:31.844Z,98829.00
2023-02-05T17:12:38.890Z,98838.00
2023-02-05T17:18:42.423Z,98845.00
2023-02-05T17:23:47.664Z,98861.00
2023-02-05T17:28:55.059Z,98867.00
2023-02-05T17:33:58.361Z,98896.00
2023-02-05T17:38:59.146Z,98888.00
2023-02-05T17:44:00.271Z,98884.00
2023-02-05T17:49:01.297Z,98895.00
2023-02-05T17:54:02.118Z,98906.00
2023-02-05T17:59:02.848Z,98914.00
2023-02-05T18:04:04.036Z,98919.00
2023-02-05T18:09:05.265Z,98916.00
2023-02-05T18:14:06.161Z,98926.00
2023-02-05T18:19:06.963Z,98920.00
2023-02-05T18:24:07.839Z,98926.00
2023-02-05T18:29:08.683Z,98931.00
2023-02-05T18:34:09.876Z,98950.00
2023-02-05T18:39:10.623Z,98946.00
2023-02-05T18:44:11.986Z,98946.00
2023-02-05T18:49:12.755Z,98958.00
2023-02-05T18:54:13.937Z,98951.00
2023-02-05T18:59:17.281Z,98953.00
2023-02-05T19:04:19.985Z,98953.00
2023-02-05T19:09:23.240Z,98970.00
2023-02-05T19:14:24.735Z,98966.00
2023-02-05T19:19:25.808Z,98970.00
2023-02-05T19:24:27.902Z,98980.00
2023-02-05T19:29:28.735Z,98971.00
2023-02-05T19:34:29.887Z,98984.00
2023-02-05T19:39:30.774Z,98987.00
2023-02-05T19:44:31.843Z,98986.00
2023-02-05T19:49:32.608Z,98991.00
2023-02-05T19:54:33.453Z,98999.00
2023-02-05T19:59:34.345Z,99005.00
2023-02-05T20:04:35.263Z,99002.00
2023-02-05T20:09:35.997Z,99007.00
2023-02-05T20:14:36.802Z,99021.00
2023-02-05T20:19:40.711Z,99024.00
2023-02-05T20:24:41.485Z,99013.00
2023-02-05T20:30:00.860Z,99009.00
2023-02-05T20:35:01.706Z,99017.00
2023-02-05T20:40:03.824Z,99024.00
2023-02-05T20:45:05.173Z,99029.00
2023-02-05T20:50:07.693Z,99024.00
2023-02-05T20:55:08.455Z,99035.00
2023-02-05T21:00:10.666Z,99038.00
2023-02-05T21:05:15.034Z,99044.00
2023-02-05T21:10:18.105Z,99046.00
2023-02-05T21:15:18.834Z,99044.00
2023-02-05T21:20:19.605Z,99053.00
2023-02-05T21:25:20.374Z,99055.00
2023-02-05T21:30:21.116Z,99055.00
2023-02-05T21:35:21.956Z,99076.00
2023-02-05T21:40:22.962Z,99093.00
2023-02-05T21:45:23.743Z,99090.00
2023-02-05T21:50:24.833Z,99093.00
2023-02-05T21:55:26.030Z,99096.00
2023-02-05T22:00:26.820Z,99099.00
2023-02-05T22:05:27.752Z,99116.00
2023-02-05T22:10:28.557Z,99135.00
2023-02-05T22:15:30.437Z,99136.00
2023-02-05T22:20:31.206Z,99132.00
2023-02-05T22:25:32.020Z,99140.00
2023-02-05T22:30:32.994Z,99136.00
2023-02-05T22:35:34.247Z,99136.00
2023-02-05T22:40:35.251Z,99152.00
2023-02-05T22:45:36.340Z,99152.00
2023-02-05T22:50:41.601Z,99143.00
2023-02-05T22:55:42.572Z,99145.00
2023-02-05T23:00:43.359Z,99149.00
2023-02-05T23:05:44.311Z,99166.00
2023-02-05T23:10:45.202Z,99161.00
2023-02-05T23:15:46.256Z,99157.00
2023-02-05T23:20:46.983Z,99157.00
2023-02-05T23:25:49.199Z,99154.00
2023-02-05T23:30:50.108Z,99156.00
2023-02-05T23:35:51.178Z,99160.00
2023-02-05T23:40:53.174Z,99148.00
2023-02-05T23:45:54.325Z,99149.00
2023-02-05T23:50:58.247Z,99148.00
2023-02-05T23:56:00.085Z,99161.00
